createdAt,value
2016-06-24T00:00:07.082Z,20.02
2016-06-24T00:00:17.721Z,19.99
2016-06-24T00:00:27.728Z,20.02
2016-06-24T00:00:37.089Z,20.06
2016-06-24T00:00:47.738Z,20.02
2016-06-24T00:00:57.750Z,19.99
2016-06-24T00:01:07.756Z,19.94
2016-06-24T00:01:17.761Z,20.03
2016-06-24T00:01:27.776Z,20.05
2016-06-24T00:01:37.768Z,20.03
2016-06-24T00:01:47.765Z,20.03
2016-06-24T00:01:57.802Z,20.03
2016-06-24T00:02:07.141Z,20.06
2016-06-24T00:02:17.792Z,20.06
2016-06-24T00:02:27.824Z,20.02
2016-06-24T00:02:37.845Z,20.11
2016-06-24T00:02:47.807Z,20.1
2016-06-24T00:02:57.842Z,20.03
2016-06-24T00:03:07.818Z,20.06
2016-06-24T00:03:17.867Z,20.08
2016-06-24T00:03:27.195Z,20.1
2016-06-24T00:03:37.838Z,20.06
2016-06-24T00:03:47.839Z,20.1
2016-06-24T00:03:57.219Z,20.05
2016-06-24T00:04:07.854Z,20.06
2016-06-24T00:04:17.218Z,20.06
2016-06-24T00:04:27.863Z,20.08
2016-06-24T00:04:37.873Z,20.03
2016-06-24T00:04:47.876Z,20.1
2016-06-24T00:04:57.881Z,20.03
2016-06-24T00:05:07.887Z,20.05
2016-06-24T00:05:17.890Z,20.05
2016-06-24T00:05:27.950Z,20.05
2016-06-24T00:05:37.901Z,20.06
2016-06-24T00:05:47.267Z,20.03
2016-06-24T00:05:57.923Z,19.99
2016-06-24T00:06:07.286Z,20.01
2016-06-24T00:06:17.927Z,20.06
2016-06-24T00:06:27.931Z,20.05
2016-06-24T00:06:37.325Z,19.96
2016-06-24T00:06:47.943Z,20.06
2016-06-24T00:06:57.309Z,20.02
2016-06-24T00:07:07.983Z,20.08
2016-06-24T00:07:17.961Z,20.06
2016-06-24T00:07:27.330Z,20.05
2016-06-24T00:07:37.330Z,20.06
2016-06-24T00:07:47.970Z,20.05
2016-06-24T00:07:57.346Z,19.99
2016-06-24T00:08:07.991Z,20.06
2016-06-24T00:08:17.998Z,20.02
2016-06-24T00:08:27.999Z,19.96
2016-06-24T00:08:38.003Z,19.96
2016-06-24T00:08:47.400Z,19.94
2016-06-24T00:08:57.390Z,19.95
2016-06-24T00:09:08.036Z,19.95
2016-06-24T00:09:17.396Z,20.06
2016-06-24T00:09:28.037Z,19.96
2016-06-24T00:09:37.407Z,20.11
2016-06-24T00:09:48.061Z,19.98
2016-06-24T00:09:58.062Z,19.98
2016-06-24T00:10:08.061Z,19.95
2016-06-24T00:10:18.073Z,19.96
2016-06-24T00:10:28.075Z,19.95
2016-06-24T00:10:37.505Z,19.99
2016-06-24T00:10:48.109Z,19.95
2016-06-24T00:10:57.452Z,19.96
2016-06-24T00:11:08.094Z,19.99
2016-06-24T00:11:18.103Z,19.94
2016-06-24T00:11:27.478Z,19.96
2016-06-24T00:11:37.502Z,19.95
2016-06-24T00:11:47.473Z,19.92
2016-06-24T00:11:58.132Z,19.94
2016-06-24T00:12:08.130Z,19.99
2016-06-24T00:12:18.129Z,19.92
2016-06-24T00:12:27.504Z,19.98
2016-06-24T00:12:38.170Z,19.96
2016-06-24T00:12:48.151Z,19.96
2016-06-24T00:12:58.158Z,19.96
2016-06-24T00:13:08.169Z,19.96
2016-06-24T00:13:18.163Z,19.99
2016-06-24T00:13:28.186Z,19.99
2016-06-24T00:13:38.178Z,19.92
2016-06-24T00:13:48.190Z,19.95
2016-06-24T00:13:58.194Z,19.95
2016-06-24T00:14:08.192Z,19.92
2016-06-24T00:14:18.207Z,20.03
2016-06-24T00:14:28.207Z,19.98
2016-06-24T00:14:38.220Z,20.01
2016-06-24T00:14:48.212Z,19.94
2016-06-24T00:14:58.223Z,19.91
2016-06-24T00:15:08.234Z,20.01
2016-06-24T00:15:18.235Z,19.91
2016-06-24T00:15:27.607Z,19.96
2016-06-24T00:15:38.252Z,19.92
2016-06-24T00:15:48.258Z,19.96
2016-06-24T00:15:58.276Z,19.92
2016-06-24T00:16:08.272Z,19.92
2016-06-24T00:16:18.271Z,19.94
2016-06-24T00:16:27.640Z,19.95
2016-06-24T00:16:37.654Z,19.98
2016-06-24T00:16:48.286Z,19.94
2016-06-24T00:16:58.295Z,19.94
2016-06-24T00:17:08.303Z,19.94
2016-06-24T00:17:17.670Z,19.91
2016-06-24T00:17:27.682Z,19.94
2016-06-24T00:17:37.682Z,19.88
2016-06-24T00:17:48.329Z,19.96
2016-06-24T00:17:57.731Z,19.88
2016-06-24T00:18:07.705Z,19.92
2016-06-24T00:18:18.343Z,19.95
2016-06-24T00:18:28.342Z,19.95
2016-06-24T00:18:38.345Z,19.96
2016-06-24T00:18:48.354Z,19.92
2016-06-24T00:18:58.361Z,19.95
2016-06-24T00:19:08.367Z,19.94
2016-06-24T00:19:18.455Z,19.96
2016-06-24T00:19:28.396Z,19.91
2016-06-24T00:19:38.387Z,19.96
2016-06-24T00:19:47.758Z,19.88
2016-06-24T00:19:58.430Z,19.92
2016-06-24T00:20:08.405Z,19.87
2016-06-24T00:20:17.787Z,19.96
2016-06-24T00:20:28.462Z,19.94
2016-06-24T00:20:38.048Z,19.94
2016-06-24T00:20:48.477Z,19.91
2016-06-24T00:20:57.975Z,19.87
2016-06-24T00:21:08.441Z,19.96
2016-06-24T00:21:18.440Z,19.92
2016-06-24T00:21:28.445Z,19.96
2016-06-24T00:21:38.458Z,19.91
2016-06-24T00:21:48.477Z,19.88
2016-06-24T00:21:58.835Z,19.92
2016-06-24T00:22:08.479Z,19.91
2016-06-24T00:22:26.948Z,19.91
2016-06-24T00:22:36.905Z,19.88
2016-06-24T00:22:46.302Z,19.96
2016-06-24T00:22:56.923Z,19.96
2016-06-24T00:23:06.919Z,19.98
2016-06-24T00:23:16.945Z,19.87
2016-06-24T00:23:26.939Z,19.91
2016-06-24T00:23:36.315Z,19.83
2016-06-24T00:23:46.958Z,19.96
2016-06-24T00:23:56.954Z,19.96
2016-06-24T00:24:06.611Z,19.99
2016-06-24T00:24:17.067Z,19.96
2016-06-24T00:24:26.966Z,19.94
2016-06-24T00:24:36.968Z,19.96
2016-06-24T00:24:46.980Z,19.95
2016-06-24T00:24:56.983Z,20.01
2016-06-24T00:25:06.368Z,19.88
2016-06-24T00:25:16.384Z,19.96
2016-06-24T00:25:26.996Z,19.94
2016-06-24T00:25:37.001Z,19.96
2016-06-24T00:25:47.010Z,19.96
2016-06-24T00:25:57.016Z,19.88
2016-06-24T00:26:07.028Z,19.81
2016-06-24T00:26:16.417Z,19.83
2016-06-24T00:26:26.408Z,19.87
2016-06-24T00:26:36.409Z,19.95
2016-06-24T00:26:46.407Z,19.92
2016-06-24T00:26:57.048Z,19.94
2016-06-24T00:27:07.051Z,19.91
2016-06-24T00:27:17.058Z,19.88
2016-06-24T00:27:27.066Z,19.92
2016-06-24T00:27:36.430Z,19.86
2016-06-24T00:27:47.084Z,19.84
2016-06-24T00:27:57.082Z,19.92
2016-06-24T00:28:06.491Z,19.81
2016-06-24T00:28:16.461Z,19.92
2016-06-24T00:28:27.123Z,19.88
2016-06-24T00:28:36.481Z,19.91
2016-06-24T00:28:47.110Z,19.94
2016-06-24T00:28:57.116Z,19.88
2016-06-24T00:29:07.131Z,19.83
2016-06-24T00:29:16.496Z,19.95
2016-06-24T00:29:26.547Z,19.94
2016-06-24T00:29:37.138Z,19.92
2016-06-24T00:29:47.147Z,19.94
2016-06-24T00:29:57.155Z,19.96
2016-06-24T00:30:07.166Z,19.98
2016-06-24T00:30:17.171Z,19.88
2016-06-24T00:30:27.171Z,19.91
2016-06-24T00:30:36.534Z,19.88
2016-06-24T00:30:47.179Z,19.84
2016-06-24T00:30:57.184Z,19.92
2016-06-24T00:31:07.203Z,19.87
2016-06-24T00:31:17.466Z,19.88
2016-06-24T00:31:27.211Z,19.88
2016-06-24T00:31:37.214Z,19.83
2016-06-24T00:31:47.215Z,19.86
2016-06-24T00:31:57.218Z,19.88
2016-06-24T00:32:06.595Z,19.87
2016-06-24T00:32:17.230Z,19.84
2016-06-24T00:32:27.245Z,19.87
2016-06-24T00:32:36.607Z,19.84
2016-06-24T00:32:46.628Z,19.84
2016-06-24T00:32:57.284Z,19.84
2016-06-24T00:33:07.256Z,19.8
2016-06-24T00:33:16.626Z,19.87
2016-06-24T00:33:27.294Z,19.87
2016-06-24T00:33:37.287Z,19.86
2016-06-24T00:33:47.305Z,19.88
2016-06-24T00:33:56.657Z,19.87
2016-06-24T00:34:07.301Z,19.83
2016-06-24T00:34:17.319Z,19.92
2016-06-24T00:34:27.306Z,19.91
2016-06-24T00:34:36.678Z,19.81
2016-06-24T00:34:47.324Z,19.87
2016-06-24T00:34:57.332Z,19.81
2016-06-24T00:35:07.334Z,19.83
2016-06-24T00:35:17.338Z,19.88
2016-06-24T00:35:27.337Z,19.88
2016-06-24T00:35:37.347Z,19.84
2016-06-24T00:35:47.346Z,19.88
2016-06-24T00:35:57.371Z,19.84
2016-06-24T00:36:06.730Z,19.92
2016-06-24T00:36:17.370Z,19.88
2016-06-24T00:36:27.381Z,19.81
2016-06-24T00:36:36.747Z,19.91
2016-06-24T00:36:46.743Z,19.88
2016-06-24T00:36:57.407Z,19.92
2016-06-24T00:37:07.397Z,19.86
2016-06-24T00:37:17.401Z,19.91
2016-06-24T00:37:27.407Z,19.92
2016-06-24T00:37:36.785Z,19.91
2016-06-24T00:37:47.420Z,19.84
2016-06-24T00:37:57.429Z,19.99
2016-06-24T00:38:07.707Z,19.92
2016-06-24T00:38:17.441Z,19.92
2016-06-24T00:38:26.814Z,19.84
2016-06-24T00:38:37.461Z,19.87
2016-06-24T00:38:46.822Z,19.91
2016-06-24T00:38:57.479Z,19.87
2016-06-24T00:39:07.473Z,19.88
2016-06-24T00:39:17.474Z,19.86
2016-06-24T00:39:26.847Z,19.87
2016-06-24T00:39:37.486Z,19.92
2016-06-24T00:39:46.860Z,19.84
2016-06-24T00:39:57.500Z,19.83
2016-06-24T00:40:07.501Z,19.84
2016-06-24T00:40:16.873Z,19.86
2016-06-24T00:40:27.513Z,19.84
2016-06-24T00:40:37.513Z,19.86
2016-06-24T00:40:46.885Z,19.91
2016-06-24T00:40:57.532Z,19.86
2016-06-24T00:41:06.902Z,19.87
2016-06-24T00:41:17.543Z,19.86
2016-06-24T00:41:27.557Z,19.86
2016-06-24T00:41:37.552Z,19.86
2016-06-24T00:41:47.571Z,19.86
2016-06-24T00:41:57.569Z,19.83
2016-06-24T00:42:06.934Z,19.81
2016-06-24T00:42:16.954Z,19.83
2016-06-24T00:42:26.951Z,19.8
2016-06-24T00:42:37.596Z,19.86
2016-06-24T00:42:47.591Z,19.87
2016-06-24T00:42:57.599Z,19.83
2016-06-24T00:43:07.612Z,19.8
2016-06-24T00:43:17.608Z,19.81
2016-06-24T00:43:26.978Z,19.81
2016-06-24T00:43:37.636Z,19.78
2016-06-24T00:43:47.626Z,19.81
2016-06-24T00:43:57.635Z,19.88
2016-06-24T00:44:07.643Z,19.83
2016-06-24T00:44:17.642Z,19.84
2016-06-24T00:44:27.656Z,19.83
2016-06-24T00:44:37.656Z,19.88
2016-06-24T00:44:47.032Z,19.81
2016-06-24T00:44:57.038Z,19.8
2016-06-24T00:45:07.690Z,19.81
2016-06-24T00:45:17.050Z,19.81
2016-06-24T00:45:27.692Z,19.83
2016-06-24T00:45:37.693Z,19.84
2016-06-24T00:45:47.694Z,19.87
2016-06-24T00:45:57.064Z,19.86
2016-06-24T00:46:07.072Z,19.83
2016-06-24T00:46:17.711Z,19.86
2016-06-24T00:46:27.733Z,19.8
2016-06-24T00:46:37.729Z,19.83
2016-06-24T00:46:47.737Z,19.84
2016-06-24T00:46:57.109Z,19.81
2016-06-24T00:47:07.750Z,19.81
2016-06-24T00:47:17.745Z,19.84
2016-06-24T00:47:27.753Z,19.83
2016-06-24T00:47:37.126Z,19.87
2016-06-24T00:47:47.775Z,19.83
2016-06-24T00:47:57.776Z,19.84
2016-06-24T00:48:07.145Z,19.86
2016-06-24T00:48:17.804Z,19.84
2016-06-24T00:48:27.154Z,19.86
2016-06-24T00:48:37.795Z,19.84
2016-06-24T00:48:47.162Z,19.8
2016-06-24T00:48:57.806Z,19.86
2016-06-24T00:49:07.829Z,19.83
2016-06-24T00:49:17.818Z,19.81
2016-06-24T00:49:27.821Z,19.86
2016-06-24T00:49:37.825Z,19.81
2016-06-24T00:49:47.832Z,19.84
2016-06-24T00:49:57.212Z,19.8
2016-06-24T00:50:07.211Z,19.88
2016-06-24T00:50:17.852Z,19.83
2016-06-24T00:50:27.227Z,19.83
2016-06-24T00:50:37.875Z,19.84
2016-06-24T00:50:47.865Z,19.83
2016-06-24T00:50:57.872Z,19.83
2016-06-24T00:51:07.881Z,19.88
2016-06-24T00:51:17.250Z,19.84
2016-06-24T00:51:27.897Z,19.8
2016-06-24T00:51:37.911Z,19.78
2016-06-24T00:51:47.905Z,19.77
2016-06-24T00:51:57.284Z,19.91
2016-06-24T00:52:07.911Z,19.86
2016-06-24T00:52:17.931Z,19.86
2016-06-24T00:52:27.934Z,19.78
2016-06-24T00:52:37.936Z,19.87
2016-06-24T00:52:47.311Z,19.8
2016-06-24T00:52:57.311Z,19.83
2016-06-24T00:53:07.949Z,19.81
2016-06-24T00:53:17.318Z,19.83
2016-06-24T00:53:27.326Z,19.81
2016-06-24T00:53:37.975Z,19.84
2016-06-24T00:53:47.974Z,19.84
2016-06-24T00:53:57.341Z,19.86
2016-06-24T00:54:07.345Z,19.84
2016-06-24T00:54:17.993Z,19.86
2016-06-24T00:54:28.007Z,19.83
2016-06-24T00:54:38.005Z,19.86
2016-06-24T00:54:48.014Z,19.83
2016-06-24T00:54:58.033Z,19.86
2016-06-24T00:55:08.017Z,19.84
2016-06-24T00:55:18.037Z,19.86
2016-06-24T00:55:27.396Z,19.86
2016-06-24T00:55:38.038Z,19.86
2016-06-24T00:55:47.429Z,19.86
2016-06-24T00:55:58.053Z,19.88
2016-06-24T00:56:08.059Z,19.83
2016-06-24T00:56:18.060Z,19.88
2016-06-24T00:56:27.432Z,19.83
2016-06-24T00:56:37.433Z,19.83
2016-06-24T00:56:47.442Z,19.86
2016-06-24T00:56:58.084Z,19.86
2016-06-24T00:57:08.089Z,19.88
2016-06-24T00:57:18.089Z,19.84
2016-06-24T00:57:28.110Z,19.88
2016-06-24T00:57:38.118Z,19.91
2016-06-24T00:57:48.106Z,19.84
2016-06-24T00:57:58.113Z,19.84
2016-06-24T00:58:08.121Z,19.87
2016-06-24T00:58:17.489Z,19.86
2016-06-24T00:58:28.130Z,19.95
2016-06-24T00:58:38.140Z,19.87
2016-06-24T00:58:48.155Z,19.87
2016-06-24T00:58:58.163Z,19.87
2016-06-24T00:59:07.521Z,19.86
2016-06-24T00:59:18.165Z,19.83
2016-06-24T00:59:28.164Z,19.91
2016-06-24T00:59:38.172Z,19.86
2016-06-24T00:59:48.183Z,19.92
2016-06-24T00:59:57.554Z,19.91
2016-06-24T01:00:08.213Z,19.96
2016-06-24T01:00:18.200Z,19.86
2016-06-24T01:00:28.207Z,19.91
2016-06-24T01:00:38.218Z,19.91
2016-06-24T01:00:48.212Z,19.91
2016-06-24T01:00:58.231Z,19.91
2016-06-24T01:01:08.230Z,19.95
2016-06-24T01:01:18.238Z,19.92
2016-06-24T01:01:28.245Z,19.81
2016-06-24T01:01:38.248Z,19.98
2016-06-24T01:01:48.262Z,19.87
2016-06-24T01:01:58.280Z,19.91
2016-06-24T01:02:08.265Z,19.92
2016-06-24T01:02:18.270Z,19.94
2016-06-24T01:02:28.269Z,19.91
2016-06-24T01:02:37.637Z,19.87
2016-06-24T01:02:48.291Z,19.86
2016-06-24T01:02:57.655Z,19.87
2016-06-24T01:03:08.303Z,19.91
2016-06-24T01:03:18.305Z,19.83
2016-06-24T01:03:28.315Z,19.92
2016-06-24T01:03:37.693Z,19.88
2016-06-24T01:03:48.340Z,19.86
2016-06-24T01:03:58.329Z,19.92
2016-06-24T01:04:08.335Z,19.91
2016-06-24T01:04:17.707Z,19.94
2016-06-24T01:04:28.342Z,19.95
2016-06-24T01:04:38.346Z,19.94
2016-06-24T01:04:48.349Z,19.91
2016-06-24T01:04:58.361Z,19.88
2016-06-24T01:05:07.735Z,19.95
2016-06-24T01:05:18.377Z,19.95
2016-06-24T01:05:28.378Z,19.94
2016-06-24T01:05:38.388Z,19.91
2016-06-24T01:05:48.381Z,19.98
2016-06-24T01:05:58.390Z,19.98
2016-06-24T01:06:08.398Z,19.94
2016-06-24T01:06:18.411Z,19.91
2016-06-24T01:06:28.411Z,19.84
2016-06-24T01:06:38.421Z,19.87
2016-06-24T01:06:47.786Z,19.92
2016-06-24T01:06:57.794Z,19.95
2016-06-24T01:07:08.439Z,19.91
2016-06-24T01:07:17.802Z,19.94
2016-06-24T01:07:28.449Z,19.95
2016-06-24T01:07:38.450Z,19.94
2016-06-24T01:07:47.824Z,19.92
2016-06-24T01:07:58.483Z,19.96
2016-06-24T01:08:08.471Z,19.95
2016-06-24T01:08:18.490Z,19.98
2016-06-24T01:08:28.479Z,19.95
2016-06-24T01:08:38.479Z,19.91
2016-06-24T01:08:48.500Z,19.96
2016-06-24T01:08:58.507Z,19.88
2016-06-24T01:09:08.509Z,19.96
2016-06-24T01:09:18.506Z,19.88
2016-06-24T01:09:28.518Z,19.95
2016-06-24T01:09:37.891Z,19.92
2016-06-24T01:09:48.529Z,19.91
2016-06-24T01:09:57.909Z,19.92
2016-06-24T01:10:08.539Z,19.92
2016-06-24T01:10:18.550Z,19.92
2016-06-24T01:10:28.561Z,19.96
2016-06-24T01:10:37.920Z,19.92
2016-06-24T01:10:47.923Z,19.91
2016-06-24T01:10:58.569Z,19.95
2016-06-24T01:11:08.574Z,19.92
2016-06-24T01:11:18.581Z,19.98
2016-06-24T01:11:27.949Z,19.95
2016-06-24T01:11:38.590Z,19.98
2016-06-24T01:11:48.600Z,19.92
2016-06-24T01:11:58.599Z,19.95
2016-06-24T01:12:08.610Z,20.02
2016-06-24T01:12:18.616Z,19.94
2016-06-24T01:12:28.623Z,20.01
2016-06-24T01:12:38.626Z,19.98
2016-06-24T01:12:48.632Z,19.96
2016-06-24T01:12:58.634Z,20.05
2016-06-24T01:13:08.654Z,19.96
2016-06-24T01:13:18.650Z,20.02
2016-06-24T01:13:28.649Z,19.98
2016-06-24T01:13:38.658Z,20.01
2016-06-24T01:13:48.676Z,20.01
2016-06-24T01:13:58.673Z,19.96
2016-06-24T01:14:08.671Z,19.92
2016-06-24T01:14:18.686Z,19.94
2016-06-24T01:14:28.689Z,20.01
2016-06-24T01:14:38.692Z,19.96
2016-06-24T01:14:48.701Z,19.95
2016-06-24T01:14:58.080Z,19.92
2016-06-24T01:15:08.078Z,20.03
2016-06-24T01:15:18.718Z,20.03
2016-06-24T01:15:28.719Z,20.01
2016-06-24T01:15:38.726Z,19.94
2016-06-24T01:15:48.731Z,20.01
2016-06-24T01:15:58.750Z,19.94
2016-06-24T01:16:08.747Z,19.95
2016-06-24T01:16:18.755Z,19.98
2016-06-24T01:16:28.123Z,20.02
2016-06-24T01:16:38.759Z,19.99
2016-06-24T01:16:48.781Z,19.96
2016-06-24T01:16:58.137Z,19.91
2016-06-24T01:17:08.777Z,19.95
2016-06-24T01:17:18.791Z,20.03
2016-06-24T01:17:28.162Z,20.05
2016-06-24T01:17:38.802Z,20.01
2016-06-24T01:17:48.812Z,19.99
2016-06-24T01:17:58.178Z,19.96
2016-06-24T01:18:08.816Z,19.96
2016-06-24T01:18:18.825Z,19.94
2016-06-24T01:18:28.835Z,19.98
2016-06-24T01:18:38.842Z,19.96
2016-06-24T01:18:48.205Z,19.92
2016-06-24T01:18:58.207Z,20.06
2016-06-24T01:19:08.850Z,19.94
2016-06-24T01:19:18.865Z,19.96
2016-06-24T01:19:28.864Z,20.05
2016-06-24T01:19:38.877Z,20.01
2016-06-24T01:19:48.874Z,20.01
2016-06-24T01:19:58.883Z,20.03
2016-06-24T01:20:08.884Z,20.02
2016-06-24T01:20:18.260Z,20.03
2016-06-24T01:20:28.898Z,19.99
2016-06-24T01:20:38.899Z,20.01
2016-06-24T01:20:48.914Z,19.98
2016-06-24T01:20:58.914Z,19.96
2016-06-24T01:21:08.923Z,19.95
2016-06-24T01:21:18.926Z,20.01
2016-06-24T01:21:28.298Z,19.95
2016-06-24T01:21:38.949Z,19.91
2016-06-24T01:21:48.309Z,19.87
2016-06-24T01:21:58.314Z,19.94
2016-06-24T01:22:08.960Z,19.99
2016-06-24T01:22:18.967Z,19.99
2016-06-24T01:22:28.973Z,19.96
2016-06-24T01:22:38.992Z,19.95
2016-06-24T01:22:48.982Z,20.01
2016-06-24T01:22:58.986Z,19.98
2016-06-24T01:23:08.989Z,19.95
2016-06-24T01:23:18.990Z,20.03
2016-06-24T01:23:28.363Z,20.06
2016-06-24T01:23:39.002Z,20.06
2016-06-24T01:23:49.008Z,20.06
2016-06-24T01:23:59.037Z,20.03
2016-06-24T01:24:09.024Z,20.01
2016-06-24T01:24:19.026Z,19.87
2016-06-24T01:24:28.412Z,20.05
2016-06-24T01:24:39.041Z,19.98
2016-06-24T01:24:49.044Z,19.95
2016-06-24T01:24:59.044Z,19.92
2016-06-24T01:25:09.057Z,19.94
2016-06-24T01:25:19.064Z,19.98
2016-06-24T01:25:29.073Z,19.95
2016-06-24T01:25:39.074Z,19.92
2016-06-24T01:25:48.438Z,19.98
2016-06-24T01:25:59.082Z,19.99
2016-06-24T01:26:09.098Z,19.92
2016-06-24T01:26:18.461Z,19.96
2016-06-24T01:26:29.135Z,19.96
2016-06-24T01:26:39.107Z,19.94
2016-06-24T01:26:49.122Z,19.96
2016-06-24T01:26:59.119Z,20.08
2016-06-24T01:27:08.492Z,20.01
2016-06-24T01:27:19.155Z,20.01
2016-06-24T01:27:29.150Z,20.08
2016-06-24T01:27:39.152Z,20.05
2016-06-24T01:27:49.148Z,19.95
2016-06-24T01:27:59.158Z,20.06
2016-06-24T01:28:09.166Z,19.95
2016-06-24T01:28:18.534Z,19.98
2016-06-24T01:28:29.187Z,20.01
2016-06-24T01:28:38.541Z,19.95
2016-06-24T01:28:49.184Z,19.96
2016-06-24T01:28:59.186Z,19.95
2016-06-24T01:29:09.199Z,19.96
2016-06-24T01:29:18.561Z,20.08
2016-06-24T01:29:29.206Z,20.01
2016-06-24T01:29:38.575Z,19.96
2016-06-24T01:29:49.226Z,19.95
2016-06-24T01:29:59.229Z,19.92
2016-06-24T01:30:09.228Z,19.92
2016-06-24T01:30:19.235Z,19.98
2016-06-24T01:30:28.604Z,19.95
2016-06-24T01:30:39.256Z,19.94
2016-06-24T01:30:48.661Z,19.95
2016-06-24T01:30:58.625Z,19.96
2016-06-24T01:31:09.266Z,19.94
2016-06-24T01:31:19.292Z,19.94
2016-06-24T01:31:28.640Z,19.95
2016-06-24T01:31:39.310Z,19.94
2016-06-24T01:31:49.288Z,19.96
2016-06-24T01:31:59.294Z,19.92
2016-06-24T01:32:09.300Z,19.92
2016-06-24T01:32:19.306Z,19.94
2016-06-24T01:32:29.317Z,20.03
2016-06-24T01:32:38.678Z,19.95
2016-06-24T01:32:49.315Z,20.01
2016-06-24T01:32:59.335Z,19.98
2016-06-24T01:33:09.345Z,19.92
2016-06-24T01:33:18.701Z,19.99
2016-06-24T01:33:29.337Z,19.98
2016-06-24T01:33:39.351Z,19.95
2016-06-24T01:33:49.366Z,19.92
2016-06-24T01:33:59.364Z,20.02
2016-06-24T01:34:09.371Z,19.98
2016-06-24T01:34:19.381Z,19.96
2016-06-24T01:34:29.401Z,19.94
2016-06-24T01:34:39.413Z,19.94
2016-06-24T01:34:49.392Z,19.94
2016-06-24T01:34:58.761Z,19.99
2016-06-24T01:35:09.400Z,19.99
2016-06-24T01:35:19.401Z,19.94
2016-06-24T01:35:29.423Z,19.95
2016-06-24T01:35:39.430Z,19.95
2016-06-24T01:35:49.429Z,20.02
2016-06-24T01:35:59.440Z,19.96
2016-06-24T01:36:09.450Z,19.91
2016-06-24T01:36:18.810Z,19.94
2016-06-24T01:36:29.449Z,19.95
2016-06-24T01:36:38.821Z,19.92
2016-06-24T01:36:49.462Z,19.94
2016-06-24T01:36:58.834Z,19.95
2016-06-24T01:37:09.481Z,19.98
2016-06-24T01:37:19.479Z,19.99
2016-06-24T01:37:29.482Z,19.98
2016-06-24T01:37:39.489Z,20.01
2016-06-24T01:37:49.496Z,19.95
2016-06-24T01:37:58.868Z,19.98
2016-06-24T01:38:08.886Z,20.02
2016-06-24T01:38:18.869Z,20.03
2016-06-24T01:38:29.529Z,19.94
2016-06-24T01:38:38.887Z,19.99
2016-06-24T01:38:49.529Z,20.01
2016-06-24T01:38:59.539Z,20.02
2016-06-24T01:39:09.544Z,20.06
2016-06-24T01:39:19.553Z,20.03
2016-06-24T01:39:29.563Z,19.98
2016-06-24T01:39:39.566Z,19.94
2016-06-24T01:39:49.574Z,20.03
2016-06-24T01:39:59.570Z,20.02
2016-06-24T01:40:09.571Z,20.02
2016-06-24T01:40:18.949Z,20.06
2016-06-24T01:40:29.585Z,20.01
2016-06-24T01:40:39.593Z,20.06
2016-06-24T01:40:49.601Z,19.88
2016-06-24T01:40:59.607Z,19.99
2016-06-24T01:41:09.623Z,20.02
2016-06-24T01:41:19.617Z,19.96
2016-06-24T01:41:29.634Z,20.05
2016-06-24T01:41:39.640Z,20.08
2016-06-24T01:41:48.996Z,20.02
2016-06-24T01:41:59.646Z,20.05
2016-06-24T01:42:09.660Z,20.03
2016-06-24T01:42:19.667Z,20.01
2016-06-24T01:42:29.654Z,20.1
2016-06-24T01:42:39.026Z,20.03
2016-06-24T01:42:49.671Z,20.1
2016-06-24T01:42:59.679Z,20.05
2016-06-24T01:43:09.691Z,20.08
2016-06-24T01:43:19.693Z,20.03
2016-06-24T01:43:29.685Z,20.11
2016-06-24T01:43:39.701Z,20.05
2016-06-24T01:43:49.707Z,20.1
2016-06-24T01:43:59.717Z,19.99
2016-06-24T01:44:09.079Z,20.03
2016-06-24T01:44:19.719Z,20.1
2016-06-24T01:44:29.725Z,20.05
2016-06-24T01:44:39.728Z,20.11
2016-06-24T01:44:49.734Z,20.05
2016-06-24T01:44:59.749Z,20.02
2016-06-24T01:45:09.750Z,19.99
2016-06-24T01:45:19.755Z,20.02
2016-06-24T01:45:29.763Z,20.03
2016-06-24T01:45:39.760Z,20.05
2016-06-24T01:45:49.129Z,20.03
2016-06-24T01:45:59.791Z,20.08
2016-06-24T01:46:09.790Z,20.03
2016-06-24T01:46:19.783Z,20.02
2016-06-24T01:46:29.792Z,20.08
2016-06-24T01:46:39.806Z,20.05
2016-06-24T01:46:49.816Z,20.05
2016-06-24T01:46:59.825Z,20.06
2016-06-24T01:47:09.207Z,20.08
2016-06-24T01:47:19.828Z,20.08
2016-06-24T01:47:29.837Z,20.01
2016-06-24T01:47:39.839Z,19.99
2016-06-24T01:47:49.842Z,20.05
2016-06-24T01:47:59.208Z,20.03
2016-06-24T01:48:09.852Z,20.03
2016-06-24T01:48:19.223Z,20.01
2016-06-24T01:48:29.862Z,20.03
2016-06-24T01:48:39.236Z,20.08
2016-06-24T01:48:49.875Z,20.02
2016-06-24T01:48:59.893Z,19.99
2016-06-24T01:49:09.891Z,20.03
2016-06-24T01:49:19.896Z,20.05
2016-06-24T01:49:29.897Z,20.05
2016-06-24T01:49:39.266Z,20.05
2016-06-24T01:49:51.123Z,20.08
2016-06-24T01:49:59.296Z,20.1
2016-06-24T01:50:09.934Z,20.03
2016-06-24T01:50:19.931Z,20.03
2016-06-24T01:50:29.935Z,20.03
2016-06-24T01:50:39.935Z,20.03
2016-06-24T01:50:49.947Z,20.1
2016-06-24T01:50:59.955Z,20.03
2016-06-24T01:51:09.317Z,20.06
2016-06-24T01:51:19.325Z,20.01
2016-06-24T01:51:29.350Z,20.1
2016-06-24T01:51:39.977Z,20.05
2016-06-24T01:51:49.345Z,20.03
2016-06-24T01:51:59.988Z,20.03
2016-06-24T01:52:09.990Z,20.01
2016-06-24T01:52:20.002Z,20.06
2016-06-24T01:52:30.018Z,20.05
2016-06-24T01:52:40.005Z,19.99
2016-06-24T01:52:50.015Z,20.03
2016-06-24T01:52:59.390Z,20.02
2016-06-24T01:53:09.385Z,20.02
2016-06-24T01:53:19.396Z,20.08
2016-06-24T01:53:30.037Z,20.02
2016-06-24T01:53:40.054Z,20.02
2016-06-24T01:53:50.056Z,20.03
2016-06-24T01:54:00.063Z,20.05
2016-06-24T01:54:10.080Z,20.03
2016-06-24T01:54:20.073Z,20.05
2016-06-24T01:54:30.081Z,20.05
2016-06-24T01:54:39.442Z,20.03
2016-06-24T01:54:50.086Z,20.03
2016-06-24T01:54:59.457Z,20.05
2016-06-24T01:55:10.101Z,20.02
2016-06-24T01:55:19.460Z,20.06
2016-06-24T01:55:30.113Z,20.05
2016-06-24T01:55:39.477Z,20.03
2016-06-24T01:55:50.120Z,20.01
2016-06-24T01:56:00.123Z,20.05
2016-06-24T01:56:10.128Z,20.02
2016-06-24T01:56:20.138Z,20.03
2016-06-24T01:56:30.145Z,19.98
2016-06-24T01:56:40.149Z,20.02
2016-06-24T01:56:50.165Z,20.08
2016-06-24T01:57:00.161Z,20.05
2016-06-24T01:57:10.165Z,20.08
2016-06-24T01:57:20.174Z,20.02
2016-06-24T01:57:30.191Z,20.03
2016-06-24T01:57:40.184Z,20.01
2016-06-24T01:57:50.191Z,20.02
2016-06-24T01:57:59.562Z,20.02
2016-06-24T01:58:09.558Z,20.08
2016-06-24T01:58:20.200Z,20.08
2016-06-24T01:58:29.574Z,20.05
2016-06-24T01:58:40.212Z,19.91
2016-06-24T01:58:50.232Z,20.03
2016-06-24T01:58:59.603Z,20.05
2016-06-24T01:59:09.604Z,20.08
2016-06-24T01:59:20.243Z,20.1
2016-06-24T01:59:30.254Z,20.05
2016-06-24T01:59:40.252Z,20.1
2016-06-24T01:59:49.618Z,20.02
2016-06-24T02:00:00.267Z,20.01
2016-06-24T02:00:10.274Z,20.02
2016-06-24T02:00:19.635Z,20.03
2016-06-24T02:00:30.287Z,20.02
2016-06-24T02:00:40.291Z,20.03
2016-06-24T02:00:50.291Z,20.05
2016-06-24T02:01:00.291Z,20.02
2016-06-24T02:01:09.668Z,20.03
2016-06-24T02:01:20.308Z,20.02
2016-06-24T02:01:30.316Z,20.05
2016-06-24T02:01:40.324Z,20.02
2016-06-24T02:01:50.326Z,20.01
2016-06-24T02:01:59.709Z,20.05
2016-06-24T02:02:10.352Z,20.05
2016-06-24T02:02:19.717Z,20.05
2016-06-24T02:02:30.354Z,20.05
2016-06-24T02:02:40.358Z,20.05
2016-06-24T02:02:49.732Z,20.02
2016-06-24T02:02:59.739Z,20.05
2016-06-24T02:03:10.393Z,20.03
2016-06-24T02:03:20.376Z,20.05
2016-06-24T02:03:30.386Z,20.03
2016-06-24T02:03:39.749Z,20.03
2016-06-24T02:03:50.397Z,19.99
2016-06-24T02:04:00.407Z,20.06
2016-06-24T02:04:10.411Z,20.05
2016-06-24T02:04:20.421Z,20.03
2016-06-24T02:04:30.425Z,20.01
2016-06-24T02:04:40.423Z,20.05
2016-06-24T02:04:49.797Z,20.03
2016-06-24T02:05:00.437Z,20.05
2016-06-24T02:05:10.446Z,20.08
2016-06-24T02:05:19.842Z,20.03
2016-06-24T02:05:29.826Z,20.1
2016-06-24T02:05:40.467Z,20.02
2016-06-24T02:05:50.471Z,20.02
2016-06-24T02:06:00.487Z,20.02
2016-06-24T02:06:09.850Z,20.05
2016-06-24T02:06:20.491Z,20.05
2016-06-24T02:06:30.500Z,20.05
2016-06-24T02:06:39.902Z,19.96
2016-06-24T02:06:50.512Z,20.02
2016-06-24T02:06:59.872Z,20.01
2016-06-24T02:07:10.517Z,20.11
2016-06-24T02:07:20.520Z,20.02
2016-06-24T02:07:30.530Z,20.06
2016-06-24T02:07:40.528Z,20.08
2016-06-24T02:07:50.573Z,20.05
2016-06-24T02:08:00.543Z,20.08
2016-06-24T02:08:10.555Z,20.05
2016-06-24T02:08:19.919Z,20.03
2016-06-24T02:08:30.560Z,20.05
2016-06-24T02:08:40.566Z,20.02
2016-06-24T02:08:50.573Z,20.1
2016-06-24T02:08:59.945Z,20.02
2016-06-24T02:09:10.583Z,20.02